sensor_id;sensor_type;location;lat;lon;timestamp;pressure;altitude;pressure_sealevel;temperature
12854;BMP180;6495;51.808;7.478;2023-04-16T00:01:55;101389.00;;;9.10
12854;BMP180;6495;51.808;7.478;2023-04-16T00:04:45;101380.00;;;9.10
12854;BMP180;6495;51.808;7.478;2023-04-16T00:07:33;101381.00;;;9.10
12854;BMP180;6495;51.808;7.478;2023-04-16T00:10:22;101401.00;;;9.10
12854;BMP180;6495;51.808;7.478;2023-04-16T00:13:10;101398.00;;;9.10
12854;BMP180;6495;51.808;7.478;2023-04-16T00:15:59;101397.00;;;9.10
12854;BMP180;6495;51.808;7.478;2023-04-16T00:18:47;101392.00;;;9.10
12854;BMP180;6495;51.808;7.478;2023-04-16T00:21:38;101392.00;;;9.20
12854;BMP180;6495;51.808;7.478;2023-04-16T00:24:26;101395.00;;;9.10
12854;BMP180;6495;51.808;7.478;2023-04-16T00:27:15;101398.00;;;9.10
12854;BMP180;6495;51.808;7.478;2023-04-16T00:30:05;101393.00;;;9.20
12854;BMP180;6495;51.808;7.478;2023-04-16T00:32:53;101398.00;;;9.20
12854;BMP180;6495;51.808;7.478;2023-04-16T00:35:44;101392.00;;;9.20
12854;BMP180;6495;51.808;7.478;2023-04-16T00:38:34;101389.00;;;9.20
12854;BMP180;6495;51.808;7.478;2023-04-16T00:41:23;101377.00;;;9.10
12854;BMP180;6495;51.808;7.478;2023-04-16T00:44:12;101389.00;;;9.20
12854;BMP180;6495;51.808;7.478;2023-04-16T00:47:02;101384.00;;;9.10
12854;BMP180;6495;51.808;7.478;2023-04-16T00:49:51;101393.00;;;9.10
12854;BMP180;6495;51.808;7.478;2023-04-16T00:52:39;101397.00;;;9.10
12854;BMP180;6495;51.808;7.478;2023-04-16T00:55:30;101399.00;;;9.10
12854;BMP180;6495;51.808;7.478;2023-04-16T00:58:19;101401.00;;;9.10
12854;BMP180;6495;51.808;7.478;2023-04-16T01:01:08;101406.00;;;9.10
12854;BMP180;6495;51.808;7.478;2023-04-16T01:03:56;101403.00;;;9.10
12854;BMP180;6495;51.808;7.478;2023-04-16T01:06:46;101408.00;;;9.10
12854;BMP180;6495;51.808;7.478;2023-04-16T01:09:35;101409.00;;;9.10
12854;BMP180;6495;51.808;7.478;2023-04-16T01:12:25;101408.00;;;9.10
12854;BMP180;6495;51.808;7.478;2023-04-16T01:15:13;101412.00;;;9.10
12854;BMP180;6495;51.808;7.478;2023-04-16T01:18:02;101418.00;;;9.10
12854;BMP180;6495;51.808;7.478;2023-04-16T01:20:52;101406.00;;;9.00
12854;BMP180;6495;51.808;7.478;2023-04-16T01:23:41;101407.00;;;9.00
12854;BMP180;6495;51.808;7.478;2023-04-16T01:26:29;101417.00;;;9.00
12854;BMP180;6495;51.808;7.478;2023-04-16T01:29:18;101422.00;;;9.10
12854;BMP180;6495;51.808;7.478;2023-04-16T01:32:08;101425.00;;;9.00
12854;BMP180;6495;51.808;7.478;2023-04-16T01:35:00;101433.00;;;9.00
12854;BMP180;6495;51.808;7.478;2023-04-16T01:37:50;101444.00;;;9.10
12854;BMP180;6495;51.808;7.478;2023-04-16T01:40:39;101438.00;;;9.10
12854;BMP180;6495;51.808;7.478;2023-04-16T01:43:27;101430.00;;;9.10
12854;BMP180;6495;51.808;7.478;2023-04-16T01:46:20;101435.00;;;9.10
12854;BMP180;6495;51.808;7.478;2023-04-16T01:49:10;101437.00;;;9.10
12854;BMP180;6495;51.808;7.478;2023-04-16T01:51:59;101438.00;;;9.10
12854;BMP180;6495;51.808;7.478;2023-04-16T01:54:49;101440.00;;;9.10
12854;BMP180;6495;51.808;7.478;2023-04-16T01:57:37;101436.00;;;9.10
12854;BMP180;6495;51.808;7.478;2023-04-16T02:00:26;101436.00;;;9.10
12854;BMP180;6495;51.808;7.478;2023-04-16T02:03:15;101432.00;;;9.10
12854;BMP180;6495;51.808;7.478;2023-04-16T02:06:05;101427.00;;;9.10
12854;BMP180;6495;51.808;7.478;2023-04-16T02:08:55;101431.00;;;9.20
12854;BMP180;6495;51.808;7.478;2023-04-16T02:11:46;101432.00;;;9.20
12854;BMP180;6495;51.808;7.478;2023-04-16T02:14:34;101431.00;;;9.20
12854;BMP180;6495;51.808;7.478;2023-04-16T02:17:23;101425.00;;;9.20
12854;BMP180;6495;51.808;7.478;2023-04-16T02:20:23;101431.00;;;9.20
12854;BMP180;6495;51.808;7.478;2023-04-16T02:23:15;101414.00;;;9.20
12854;BMP180;6495;51.808;7.478;2023-04-16T02:26:04;101425.00;;;9.20
12854;BMP180;6495;51.808;7.478;2023-04-16T02:28:54;101431.00;;;9.20
12854;BMP180;6495;51.808;7.478;2023-04-16T02:31:48;101428.00;;;9.20
12854;BMP180;6495;51.808;7.478;2023-04-16T02:34:37;101426.00;;;9.20
12854;BMP180;6495;51.808;7.478;2023-04-16T02:37:26;101420.00;;;9.20
12854;BMP180;6495;51.808;7.478;2023-04-16T02:40:15;101427.00;;;9.20
12854;BMP180;6495;51.808;7.478;2023-04-16T02:43:04;101423.00;;;9.20
12854;BMP180;6495;51.808;7.478;2023-04-16T02:45:54;101424.00;;;9.20
12854;BMP180;6495;51.808;7.478;2023-04-16T02:48:48;101424.00;;;9.20
12854;BMP180;6495;51.808;7.478;2023-04-16T02:51:37;101423.00;;;9.20
12854;BMP180;6495;51.808;7.478;2023-04-16T02:54:25;101430.00;;;9.20
12854;BMP180;6495;51.808;7.478;2023-04-16T02:57:14;101431.00;;;9.20
12854;BMP180;6495;51.808;7.478;2023-04-16T03:00:03;101425.00;;;9.20
12854;BMP180;6495;51.808;7.478;2023-04-16T03:02:53;101426.00;;;9.20
12854;BMP180;6495;51.808;7.478;2023-04-16T03:05:42;101424.00;;;9.10
12854;BMP180;6495;51.808;7.478;2023-04-16T03:12:15;101421.00;;;9.20
12854;BMP180;6495;51.808;7.478;2023-04-16T03:15:05;101422.00;;;9.20
12854;BMP180;6495;51.808;7.478;2023-04-16T03:17:55;101430.00;;;9.20
12854;BMP180;6495;51.808;7.478;2023-04-16T03:20:44;101421.00;;;9.20
12854;BMP180;6495;51.808;7.478;2023-04-16T03:23:32;101425.00;;;9.20
12854;BMP180;6495;51.808;7.478;2023-04-16T03:26:21;101436.00;;;9.20
12854;BMP180;6495;51.808;7.478;2023-04-16T03:29:10;101438.00;;;9.20
12854;BMP180;6495;51.808;7.478;2023-04-16T03:31:59;101431.00;;;9.20
12854;BMP180;6495;51.808;7.478;2023-04-16T03:34:48;101433.00;;;9.20
12854;BMP180;6495;51.808;7.478;2023-04-16T03:37:37;101435.00;;;9.20
12854;BMP180;6495;51.808;7.478;2023-04-16T03:40:26;101440.00;;;9.20
12854;BMP180;6495;51.808;7.478;2023-04-16T03:43:14;101434.00;;;9.30
12854;BMP180;6495;51.808;7.478;2023-04-16T03:46:03;101436.00;;;9.30
12854;BMP180;6495;51.808;7.478;2023-04-16T03:48:51;101443.00;;;9.30
12854;BMP180;6495;51.808;7.478;2023-04-16T03:51:50;101448.00;;;9.30
12854;BMP180;6495;51.808;7.478;2023-04-16T03:54:38;101440.00;;;9.30
12854;BMP180;6495;51.808;7.478;2023-04-16T03:57:39;101440.00;;;9.30
12854;BMP180;6495;51.808;7.478;2023-04-16T04:00:34;101445.00;;;9.30
12854;BMP180;6495;51.808;7.478;2023-04-16T04:03:29;101449.00;;;9.40
12854;BMP180;6495;51.808;7.478;2023-04-16T04:06:18;101444.00;;;9.30
12854;BMP180;6495;51.808;7.478;2023-04-16T04:09:09;101444.00;;;9.30
12854;BMP180;6495;51.808;7.478;2023-04-16T04:11:57;101444.00;;;9.30
12854;BMP180;6495;51.808;7.478;2023-04-16T04:14:46;101447.00;;;9.30
12854;BMP180;6495;51.808;7.478;2023-04-16T04:17:35;101452.00;;;9.30
12854;BMP180;6495;51.808;7.478;2023-04-16T04:20:24;101443.00;;;9.30
12854;BMP180;6495;51.808;7.478;2023-04-16T04:23:13;101449.00;;;9.30
12854;BMP180;6495;51.808;7.478;2023-04-16T04:26:03;101457.00;;;9.30
12854;BMP180;6495;51.808;7.478;2023-04-16T04:28:53;101452.00;;;9.40
12854;BMP180;6495;51.808;7.478;2023-04-16T04:31:42;101457.00;;;9.40
12854;BMP180;6495;51.808;7.478;2023-04-16T04:34:30;101467.00;;;9.30
12854;BMP180;6495;51.808;7.478;2023-04-16T04:37:19;101470.00;;;9.30
12854;BMP180;6495;51.808;7.478;2023-04-16T04:40:09;101469.00;;;9.40
12854;BMP180;6495;51.808;7.478;2023-04-16T04:42:59;101473.00;;;9.30
12854;BMP180;6495;51.808;7.478;2023-04-16T04:45:47;101466.00;;;9.30
12854;BMP180;6495;51.808;7.478;2023-04-16T04:48:39;101479.00;;;9.40
12854;BMP180;6495;51.808;7.478;2023-04-16T04:51:27;101471.00;;;9.40
12854;BMP180;6495;51.808;7.478;2023-04-16T04:54:16;101478.00;;;9.40
12854;BMP180;6495;51.808;7.478;2023-04-16T04:57:04;101487.00;;;9.40
12854;BMP180;6495;51.808;7.478;2023-04-16T04:59:55;101486.00;;;9.40
12854;BMP180;6495;51.808;7.478;2023-04-16T05:02:43;101491.00;;;9.30
12854;BMP180;6495;51.808;7.478;2023-04-16T05:05:32;101496.00;;;9.30
12854;BMP180;6495;51.808;7.478;2023-04-16T05:08:20;101493.00;;;9.40
12854;BMP180;6495;51.808;7.478;2023-04-16T05:11:09;101500.00;;;9.40
12854;BMP180;6495;51.808;7.478;2023-04-16T05:13:57;101499.00;;;9.40
12854;BMP180;6495;51.808;7.478;2023-04-16T05:16:47;101501.00;;;9.40
12854;BMP180;6495;51.808;7.478;2023-04-16T05:19:36;101503.00;;;9.40
12854;BMP180;6495;51.808;7.478;2023-04-16T05:22:24;101518.00;;;9.40
12854;BMP180;6495;51.808;7.478;2023-04-16T05:25:13;101511.00;;;9.40
12854;BMP180;6495;51.808;7.478;2023-04-16T05:28:06;101516.00;;;9.40
12854;BMP180;6495;51.808;7.478;2023-04-16T05:30:55;101522.00;;;9.40
12854;BMP180;6495;51.808;7.478;2023-04-16T05:33:45;101526.00;;;9.40
12854;BMP180;6495;51.808;7.478;2023-04-16T05:36:34;101528.00;;;9.40
12854;BMP180;6495;51.808;7.478;2023-04-16T05:39:23;101527.00;;;9.40
12854;BMP180;6495;51.808;7.478;2023-04-16T05:42:11;101538.00;;;9.40
12854;BMP180;6495;51.808;7.478;2023-04-16T05:45:01;101537.00;;;9.30
12854;BMP180;6495;51.808;7.478;2023-04-16T05:47:50;101536.00;;;9.30
12854;BMP180;6495;51.808;7.478;2023-04-16T05:50:40;101540.00;;;9.30
12854;BMP180;6495;51.808;7.478;2023-04-16T05:53:29;101543.00;;;9.30
12854;BMP180;6495;51.808;7.478;2023-04-16T05:56:20;101543.00;;;9.30
12854;BMP180;6495;51.808;7.478;2023-04-16T05:59:09;101543.00;;;9.30
12854;BMP180;6495;51.808;7.478;2023-04-16T06:01:58;101546.00;;;9.30
12854;BMP180;6495;51.808;7.478;2023-04-16T06:04:50;101552.00;;;9.40
12854;BMP180;6495;51.808;7.478;2023-04-16T06:07:40;101552.00;;;9.30
12854;BMP180;6495;51.808;7.478;2023-04-16T06:10:29;101554.00;;;9.30
12854;BMP180;6495;51.808;7.478;2023-04-16T06:13:21;101552.00;;;9.30
12854;BMP180;6495;51.808;7.478;2023-04-16T06:16:17;101558.00;;;9.30
12854;BMP180;6495;51.808;7.478;2023-04-16T06:19:08;101561.00;;;9.30
12854;BMP180;6495;51.808;7.478;2023-04-16T06:22:00;101564.00;;;9.40
12854;BMP180;6495;51.808;7.478;2023-04-16T06:25:06;101567.00;;;9.40
12854;BMP180;6495;51.808;7.478;2023-04-16T06:27:55;101568.00;;;9.40
12854;BMP180;6495;51.808;7.478;2023-04-16T06:30:45;101569.00;;;9.30
12854;BMP180;6495;51.808;7.478;2023-04-16T06:33:35;101576.00;;;9.20
12854;BMP180;6495;51.808;7.478;2023-04-16T06:36:34;101579.00;;;9.20
12854;BMP180;6495;51.808;7.478;2023-04-16T06:39:24;101582.00;;;9.20
12854;BMP180;6495;51.808;7.478;2023-04-16T06:42:14;101582.00;;;9.20
12854;BMP180;6495;51.808;7.478;2023-04-16T06:45:10;101584.00;;;9.20
12854;BMP180;6495;51.808;7.478;2023-04-16T06:48:00;101588.00;;;9.20
12854;BMP180;6495;51.808;7.478;2023-04-16T06:50:50;101595.00;;;9.30
12854;BMP180;6495;51.808;7.478;2023-04-16T06:53:42;101597.00;;;9.30
12854;BMP180;6495;51.808;7.478;2023-04-16T06:56:31;101590.00;;;9.30
12854;BMP180;6495;51.808;7.478;2023-04-16T06:59:23;101603.00;;;9.20
12854;BMP180;6495;51.808;7.478;2023-04-16T07:02:14;101605.00;;;9.20
12854;BMP180;6495;51.808;7.478;2023-04-16T07:05:11;101605.00;;;9.30
12854;BMP180;6495;51.808;7.478;2023-04-16T07:08:06;101602.00;;;9.30
12854;BMP180;6495;51.808;7.478;2023-04-16T07:10:55;101609.00;;;9.30
12854;BMP180;6495;51.808;7.478;2023-04-16T07:13:44;101600.00;;;9.30
12854;BMP180;6495;51.808;7.478;2023-04-16T07:16:40;101604.00;;;9.30
12854;BMP180;6495;51.808;7.478;2023-04-16T07:19:29;101623.00;;;9.30
12854;BMP180;6495;51.808;7.478;2023-04-16T07:22:21;101615.00;;;9.30
12854;BMP180;6495;51.808;7.478;2023-04-16T07:25:10;101617.00;;;9.40
12854;BMP180;6495;51.808;7.478;2023-04-16T07:27:59;101625.00;;;9.40
12854;BMP180;6495;51.808;7.478;2023-04-16T07:30:51;101616.00;;;9.40
12854;BMP180;6495;51.808;7.478;2023-04-16T07:33:54;101621.00;;;9.40
12854;BMP180;6495;51.808;7.478;2023-04-16T07:36:51;101621.00;;;9.50
12854;BMP180;6495;51.808;7.478;2023-04-16T07:39:40;101622.00;;;9.50
12854;BMP180;6495;51.808;7.478;2023-04-16T07:42:31;101627.00;;;9.50
12854;BMP180;6495;51.808;7.478;2023-04-16T07:45:20;101623.00;;;9.50
12854;BMP180;6495;51.808;7.478;2023-04-16T07:48:17;101628.00;;;9.50
12854;BMP180;6495;51.808;7.478;2023-04-16T07:51:07;101636.00;;;9.50
12854;BMP180;6495;51.808;7.478;2023-04-16T07:53:55;101634.00;;;9.60
12854;BMP180;6495;51.808;7.478;2023-04-16T07:56:44;101638.00;;;9.70
12854;BMP180;6495;51.808;7.478;2023-04-16T07:59:32;101639.00;;;9.70
12854;BMP180;6495;51.808;7.478;2023-04-16T08:02:21;101646.00;;;9.70
12854;BMP180;6495;51.808;7.478;2023-04-16T08:05:10;101652.00;;;9.70
12854;BMP180;6495;51.808;7.478;2023-04-16T08:08:00;101644.00;;;9.70
12854;BMP180;6495;51.808;7.478;2023-04-16T08:10:49;101653.00;;;9.70
12854;BMP180;6495;51.808;7.478;2023-04-16T08:13:41;101654.00;;;9.80
12854;BMP180;6495;51.808;7.478;2023-04-16T08:16:30;101663.00;;;9.80
12854;BMP180;6495;51.808;7.478;2023-04-16T08:19:19;101666.00;;;9.80
12854;BMP180;6495;51.808;7.478;2023-04-16T08:22:07;101673.00;;;9.90
12854;BMP180;6495;51.808;7.478;2023-04-16T08:24:57;101675.00;;;9.90
12854;BMP180;6495;51.808;7.478;2023-04-16T08:27:45;101676.00;;;9.90
12854;BMP180;6495;51.808;7.478;2023-04-16T08:30:34;101675.00;;;9.90
12854;BMP180;6495;51.808;7.478;2023-04-16T08:33:26;101685.00;;;10.00
12854;BMP180;6495;51.808;7.478;2023-04-16T08:36:34;101684.00;;;10.00
12854;BMP180;6495;51.808;7.478;2023-04-16T08:39:23;101686.00;;;10.00
12854;BMP180;6495;51.808;7.478;2023-04-16T08:42:28;101688.00;;;10.10
12854;BMP180;6495;51.808;7.478;2023-04-16T08:45:17;101704.00;;;10.10
12854;BMP180;6495;51.808;7.478;2023-04-16T08:48:06;101695.00;;;10.10
12854;BMP180;6495;51.808;7.478;2023-04-16T08:50:55;101693.00;;;10.20
12854;BMP180;6495;51.808;7.478;2023-04-16T08:53:59;101702.00;;;10.30
12854;BMP180;6495;51.808;7.478;2023-04-16T08:56:50;101704.00;;;10.30
12854;BMP180;6495;51.808;7.478;2023-04-16T08:59:48;101708.00;;;10.40
12854;BMP180;6495;51.808;7.478;2023-04-16T09:02:39;101708.00;;;10.40
12854;BMP180;6495;51.808;7.478;2023-04-16T09:05:55;101708.00;;;10.40
12854;BMP180;6495;51.808;7.478;2023-04-16T09:08:54;101709.00;;;10.40
12854;BMP180;6495;51.808;7.478;2023-04-16T09:12:26;101710.00;;;10.50
12854;BMP180;6495;51.808;7.478;2023-04-16T09:19:06;101710.00;;;10.60
12854;BMP180;6495;51.808;7.478;2023-04-16T09:27:22;101713.00;;;10.80
12854;BMP180;6495;51.808;7.478;2023-04-16T09:30:27;101720.00;;;10.90
12854;BMP180;6495;51.808;7.478;2023-04-16T09:33:20;101724.00;;;11.00
12854;BMP180;6495;51.808;7.478;2023-04-16T09:36:09;101726.00;;;11.10
12854;BMP180;6495;51.808;7.478;2023-04-16T09:39:02;101736.00;;;11.10
12854;BMP180;6495;51.808;7.478;2023-04-16T09:42:13;101732.00;;;11.10
12854;BMP180;6495;51.808;7.478;2023-04-16T09:45:02;101729.00;;;11.20
12854;BMP180;6495;51.808;7.478;2023-04-16T09:48:02;101734.00;;;11.30
12854;BMP180;6495;51.808;7.478;2023-04-16T09:50:52;101739.00;;;11.30
12854;BMP180;6495;51.808;7.478;2023-04-16T09:53:41;101744.00;;;11.40
12854;BMP180;6495;51.808;7.478;2023-04-16T09:56:30;101742.00;;;11.50
12854;BMP180;6495;51.808;7.478;2023-04-16T09:59:23;101742.00;;;11.50
12854;BMP180;6495;51.808;7.478;2023-04-16T10:02:12;101746.00;;;11.60
12854;BMP180;6495;51.808;7.478;2023-04-16T10:05:03;101745.00;;;11.70
12854;BMP180;6495;51.808;7.478;2023-04-16T10:07:59;101747.00;;;11.70
12854;BMP180;6495;51.808;7.478;2023-04-16T10:10:48;101751.00;;;11.80
12854;BMP180;6495;51.808;7.478;2023-04-16T10:13:37;101756.00;;;11.80
12854;BMP180;6495;51.808;7.478;2023-04-16T10:16:26;101758.00;;;11.90
12854;BMP180;6495;51.808;7.478;2023-04-16T10:19:15;101741.00;;;12.00
12854;BMP180;6495;51.808;7.478;2023-04-16T10:22:04;101749.00;;;12.00
12854;BMP180;6495;51.808;7.478;2023-04-16T10:24:55;101748.00;;;12.10
12854;BMP180;6495;51.808;7.478;2023-04-16T10:27:44;101751.00;;;12.10
12854;BMP180;6495;51.808;7.478;2023-04-16T10:30:33;101753.00;;;12.20
12854;BMP180;6495;51.808;7.478;2023-04-16T10:33:24;101749.00;;;12.20
12854;BMP180;6495;51.808;7.478;2023-04-16T10:36:15;101749.00;;;12.30
12854;BMP180;6495;51.808;7.478;2023-04-16T10:39:10;101747.00;;;12.30
12854;BMP180;6495;51.808;7.478;2023-04-16T10:42:10;101744.00;;;12.40
12854;BMP180;6495;51.808;7.478;2023-04-16T10:44:59;101759.00;;;12.40
12854;BMP180;6495;51.808;7.478;2023-04-16T10:47:48;101748.00;;;12.60
12854;BMP180;6495;51.808;7.478;2023-04-16T10:50:37;101737.00;;;12.70
12854;BMP180;6495;51.808;7.478;2023-04-16T10:53:26;101746.00;;;12.80
12854;BMP180;6495;51.808;7.478;2023-04-16T10:56:22;101751.00;;;12.80
12854;BMP180;6495;51.808;7.478;2023-04-16T10:59:17;101744.00;;;12.90
12854;BMP180;6495;51.808;7.478;2023-04-16T11:02:11;101748.00;;;12.90
12854;BMP180;6495;51.808;7.478;2023-04-16T11:05:01;101737.00;;;12.90
12854;BMP180;6495;51.808;7.478;2023-04-16T11:07:50;101739.00;;;13.00
12854;BMP180;6495;51.808;7.478;2023-04-16T11:10:41;101741.00;;;13.00
12854;BMP180;6495;51.808;7.478;2023-04-16T11:13:31;101731.00;;;13.00
12854;BMP180;6495;51.808;7.478;2023-04-16T11:16:21;101734.00;;;13.00
12854;BMP180;6495;51.808;7.478;2023-04-16T11:19:16;101740.00;;;13.10
12854;BMP180;6495;51.808;7.478;2023-04-16T11:22:05;101739.00;;;13.10
12854;BMP180;6495;51.808;7.478;2023-04-16T11:24:55;101745.00;;;13.10
12854;BMP180;6495;51.808;7.478;2023-04-16T11:27:44;101743.00;;;13.10
12854;BMP180;6495;51.808;7.478;2023-04-16T11:30:37;101744.00;;;13.10
12854;BMP180;6495;51.808;7.478;2023-04-16T11:33:30;101747.00;;;13.10
12854;BMP180;6495;51.808;7.478;2023-04-16T11:36:19;101747.00;;;13.20
12854;BMP180;6495;51.808;7.478;2023-04-16T11:39:10;101736.00;;;13.20
12854;BMP180;6495;51.808;7.478;2023-04-16T11:41:59;101748.00;;;13.30
12854;BMP180;6495;51.808;7.478;2023-04-16T11:44:51;101751.00;;;13.40
12854;BMP180;6495;51.808;7.478;2023-04-16T11:47:46;101759.00;;;13.40
12854;BMP180;6495;51.808;7.478;2023-04-16T11:50:39;101760.00;;;13.50
12854;BMP180;6495;51.808;7.478;2023-04-16T11:53:28;101750.00;;;13.50
12854;BMP180;6495;51.808;7.478;2023-04-16T11:56:25;101754.00;;;13.50
12854;BMP180;6495;51.808;7.478;2023-04-16T11:59:17;101750.00;;;13.50
12854;BMP180;6495;51.808;7.478;2023-04-16T12:02:06;101758.00;;;13.60
12854;BMP180;6495;51.808;7.478;2023-04-16T12:04:54;101763.00;;;13.50
12854;BMP180;6495;51.808;7.478;2023-04-16T12:07:45;101765.00;;;13.50
12854;BMP180;6495;51.808;7.478;2023-04-16T12:10:36;101769.00;;;13.50
12854;BMP180;6495;51.808;7.478;2023-04-16T12:13:25;101765.00;;;13.50
12854;BMP180;6495;51.808;7.478;2023-04-16T12:16:18;101767.00;;;13.50
12854;BMP180;6495;51.808;7.478;2023-04-16T12:19:11;101767.00;;;13.50
12854;BMP180;6495;51.808;7.478;2023-04-16T12:22:00;101772.00;;;13.60
12854;BMP180;6495;51.808;7.478;2023-04-16T12:24:56;101763.00;;;13.60
12854;BMP180;6495;51.808;7.478;2023-04-16T12:27:47;101762.00;;;13.60
12854;BMP180;6495;51.808;7.478;2023-04-16T12:30:48;101764.00;;;13.60
12854;BMP180;6495;51.808;7.478;2023-04-16T12:33:38;101765.00;;;13.60
12854;BMP180;6495;51.808;7.478;2023-04-16T12:36:26;101774.00;;;13.60
12854;BMP180;6495;51.808;7.478;2023-04-16T12:39:15;101770.00;;;13.60
12854;BMP180;6495;51.808;7.478;2023-04-16T12:42:05;101766.00;;;13.70
12854;BMP180;6495;51.808;7.478;2023-04-16T12:44:57;101776.00;;;13.70
12854;BMP180;6495;51.808;7.478;2023-04-16T12:47:46;101767.00;;;13.70
12854;BMP180;6495;51.808;7.478;2023-04-16T12:50:36;101769.00;;;13.70
12854;BMP180;6495;51.808;7.478;2023-04-16T12:53:26;101769.00;;;13.70
12854;BMP180;6495;51.808;7.478;2023-04-16T12:56:14;101773.00;;;13.70
12854;BMP180;6495;51.808;7.478;2023-04-16T12:59:04;101780.00;;;13.70
12854;BMP180;6495;51.808;7.478;2023-04-16T13:01:56;101771.00;;;13.70
12854;BMP180;6495;51.808;7.478;2023-04-16T13:04:44;101774.00;;;13.70
12854;BMP180;6495;51.808;7.478;2023-04-16T13:07:34;101771.00;;;13.80
12854;BMP180;6495;51.808;7.478;2023-04-16T13:10:22;101774.00;;;13.80
12854;BMP180;6495;51.808;7.478;2023-04-16T13:13:11;101774.00;;;13.80
12854;BMP180;6495;51.808;7.478;2023-04-16T13:16:01;101776.00;;;13.80
12854;BMP180;6495;51.808;7.478;2023-04-16T13:18:52;101766.00;;;13.80
12854;BMP180;6495;51.808;7.478;2023-04-16T13:21:41;101772.00;;;13.80
12854;BMP180;6495;51.808;7.478;2023-04-16T13:24:30;101781.00;;;13.80
12854;BMP180;6495;51.808;7.478;2023-04-16T13:27:19;101769.00;;;13.80
12854;BMP180;6495;51.808;7.478;2023-04-16T13:30:09;101767.00;;;13.90
12854;BMP180;6495;51.808;7.478;2023-04-16T13:33:00;101772.00;;;13.90
12854;BMP180;6495;51.808;7.478;2023-04-16T13:35:49;101773.00;;;14.00
12854;BMP180;6495;51.808;7.478;2023-04-16T13:38:38;101782.00;;;14.10
12854;BMP180;6495;51.808;7.478;2023-04-16T13:41:28;101770.00;;;14.10
12854;BMP180;6495;51.808;7.478;2023-04-16T13:44:18;101767.00;;;14.10
12854;BMP180;6495;51.808;7.478;2023-04-16T13:47:07;101775.00;;;14.20
12854;BMP180;6495;51.808;7.478;2023-04-16T13:49:57;101772.00;;;14.30
12854;BMP180;6495;51.808;7.478;2023-04-16T13:52:46;101763.00;;;14.30
12854;BMP180;6495;51.808;7.478;2023-04-16T13:55:38;101761.00;;;14.20
12854;BMP180;6495;51.808;7.478;2023-04-16T13:59:12;101758.00;;;14.30
12854;BMP180;6495;51.808;7.478;2023-04-16T14:05:49;101764.00;;;14.20
12854;BMP180;6495;51.808;7.478;2023-04-16T14:08:41;101752.00;;;14.10
12854;BMP180;6495;51.808;7.478;2023-04-16T14:11:33;101759.00;;;14.20
12854;BMP180;6495;51.808;7.478;2023-04-16T14:14:22;101759.00;;;14.20
12854;BMP180;6495;51.808;7.478;2023-04-16T14:17:12;101766.00;;;14.20
12854;BMP180;6495;51.808;7.478;2023-04-16T14:20:01;101756.00;;;14.30
12854;BMP180;6495;51.808;7.478;2023-04-16T14:23:27;101751.00;;;14.30
12854;BMP180;6495;51.808;7.478;2023-04-16T14:26:44;101753.00;;;14.40
12854;BMP180;6495;51.808;7.478;2023-04-16T14:30:30;101752.00;;;14.50
12854;BMP180;6495;51.808;7.478;2023-04-16T14:33:44;101760.00;;;14.40
12854;BMP180;6495;51.808;7.478;2023-04-16T14:36:35;101756.00;;;14.40
12854;BMP180;6495;51.808;7.478;2023-04-16T14:39:26;101760.00;;;14.40
12854;BMP180;6495;51.808;7.478;2023-04-16T14:43:16;101760.00;;;14.50
12854;BMP180;6495;51.808;7.478;2023-04-16T14:46:05;101761.00;;;14.50
12854;BMP180;6495;51.808;7.478;2023-04-16T14:57:37;101760.00;;;14.50
12854;BMP180;6495;51.808;7.478;2023-04-16T15:00:40;101758.00;;;14.50
12854;BMP180;6495;51.808;7.478;2023-04-16T15:04:19;101765.00;;;14.50
12854;BMP180;6495;51.808;7.478;2023-04-16T15:07:09;101762.00;;;14.50
12854;BMP180;6495;51.808;7.478;2023-04-16T15:09:58;101774.00;;;14.50
12854;BMP180;6495;51.808;7.478;2023-04-16T15:12:48;101761.00;;;14.50
12854;BMP180;6495;51.808;7.478;2023-04-16T15:15:37;101761.00;;;14.50
12854;BMP180;6495;51.808;7.478;2023-04-16T15:18:29;101762.00;;;14.50
12854;BMP180;6495;51.808;7.478;2023-04-16T15:21:40;101765.00;;;14.50
12854;BMP180;6495;51.808;7.478;2023-04-16T15:24:29;101767.00;;;14.50
12854;BMP180;6495;51.808;7.478;2023-04-16T15:27:25;101763.00;;;14.50
12854;BMP180;6495;51.808;7.478;2023-04-16T15:30:47;101759.00;;;14.60
12854;BMP180;6495;51.808;7.478;2023-04-16T15:33:45;101764.00;;;14.50
12854;BMP180;6495;51.808;7.478;2023-04-16T15:37:01;101769.00;;;14.50
12854;BMP180;6495;51.808;7.478;2023-04-16T15:39:52;101767.00;;;14.50
12854;BMP180;6495;51.808;7.478;2023-04-16T15:42:56;101770.00;;;14.50
12854;BMP180;6495;51.808;7.478;2023-04-16T15:46:01;101769.00;;;14.50
12854;BMP180;6495;51.808;7.478;2023-04-16T15:49:02;101781.00;;;14.50
12854;BMP180;6495;51.808;7.478;2023-04-16T15:51:51;101768.00;;;14.50
12854;BMP180;6495;51.808;7.478;2023-04-16T15:54:39;101769.00;;;14.50
12854;BMP180;6495;51.808;7.478;2023-04-16T15:57:28;101767.00;;;14.50
12854;BMP180;6495;51.808;7.478;2023-04-16T16:00:19;101776.00;;;14.60
12854;BMP180;6495;51.808;7.478;2023-04-16T16:03:09;101775.00;;;14.50
12854;BMP180;6495;51.808;7.478;2023-04-16T16:06:56;101777.00;;;14.60
12854;BMP180;6495;51.808;7.478;2023-04-16T16:11:01;101778.00;;;14.60
12854;BMP180;6495;51.808;7.478;2023-04-16T16:13:50;101781.00;;;14.50
12854;BMP180;6495;51.808;7.478;2023-04-16T16:16:41;101777.00;;;14.50
12854;BMP180;6495;51.808;7.478;2023-04-16T16:19:33;101783.00;;;14.50
12854;BMP180;6495;51.808;7.478;2023-04-16T16:22:21;101779.00;;;14.50
12854;BMP180;6495;51.808;7.478;2023-04-16T16:25:10;101778.00;;;14.50
12854;BMP180;6495;51.808;7.478;2023-04-16T16:27:59;101783.00;;;14.50
12854;BMP180;6495;51.808;7.478;2023-04-16T16:30:51;101780.00;;;14.50
12854;BMP180;6495;51.808;7.478;2023-04-16T16:33:42;101780.00;;;14.50
12854;BMP180;6495;51.808;7.478;2023-04-16T16:36:31;101781.00;;;14.50
12854;BMP180;6495;51.808;7.478;2023-04-16T16:39:22;101777.00;;;14.50
12854;BMP180;6495;51.808;7.478;2023-04-16T16:42:15;101774.00;;;14.50
12854;BMP180;6495;51.808;7.478;2023-04-16T16:45:39;101787.00;;;14.60
12854;BMP180;6495;51.808;7.478;2023-04-16T16:49:26;101785.00;;;14.60
12854;BMP180;6495;51.808;7.478;2023-04-16T16:52:30;101784.00;;;14.60
12854;BMP180;6495;51.808;7.478;2023-04-16T16:55:25;101776.00;;;14.50
12854;BMP180;6495;51.808;7.478;2023-04-16T16:58:14;101781.00;;;14.50
12854;BMP180;6495;51.808;7.478;2023-04-16T17:01:19;101791.00;;;14.60
12854;BMP180;6495;51.808;7.478;2023-04-16T17:04:23;101791.00;;;14.50
12854;BMP180;6495;51.808;7.478;2023-04-16T17:07:26;101784.00;;;14.50
12854;BMP180;6495;51.808;7.478;2023-04-16T17:10:20;101785.00;;;14.50